createdAt,value
2019-02-25T00:00:52.367Z,1.70
2019-02-25T00:03:27.560Z,1.60
2019-02-25T00:06:01.259Z,1.60
2019-02-25T00:08:35.271Z,1.60
2019-02-25T00:11:08.980Z,1.50
2019-02-25T00:13:42.832Z,1.50
2019-02-25T00:16:17.905Z,1.60
2019-02-25T00:18:51.395Z,1.70
2019-02-25T00:21:25.321Z,1.60
2019-02-25T00:24:00.077Z,1.60
2019-02-25T00:26:33.421Z,1.60
2019-02-25T00:29:06.909Z,1.50
2019-02-25T00:31:42.484Z,1.50
2019-02-25T00:34:16.201Z,1.60
2019-02-25T00:36:50.604Z,1.60
2019-02-25T00:39:24.088Z,1.50
2019-02-25T00:41:57.343Z,1.40
2019-02-25T00:44:31.101Z,1.40
2019-02-25T00:47:05.226Z,1.30
2019-02-25T00:49:39.094Z,1.30
2019-02-25T00:52:12.665Z,1.30
2019-02-25T00:54:46.640Z,1.20
2019-02-25T00:57:19.809Z,1.30
2019-02-25T00:59:52.582Z,1.30
2019-02-25T01:02:25.989Z,1.30
2019-02-25T01:04:59.133Z,1.20
2019-02-25T01:07:32.495Z,1.40
2019-02-25T01:10:06.254Z,1.50
2019-02-25T01:12:40.365Z,1.50
2019-02-25T01:15:14.135Z,1.40
2019-02-25T01:17:47.937Z,1.50
2019-02-25T01:20:21.236Z,1.50
2019-02-25T01:22:54.984Z,1.50
2019-02-25T01:25:28.511Z,1.50
2019-02-25T01:28:01.887Z,1.50
2019-02-25T01:30:35.744Z,1.40
2019-02-25T01:33:09.663Z,1.40
2019-02-25T01:35:44.060Z,1.40
2019-02-25T01:38:17.628Z,1.30
2019-02-25T01:40:51.648Z,1.20
2019-02-25T01:43:25.709Z,1.20
2019-02-25T01:45:59.641Z,1.20
2019-02-25T01:48:33.087Z,1.20
2019-02-25T01:51:06.204Z,1.10
2019-02-25T01:53:39.945Z,1.10
2019-02-25T01:56:13.240Z,1.20
2019-02-25T01:58:46.912Z,1.20
2019-02-25T02:01:20.765Z,1.30
2019-02-25T02:03:54.765Z,1.30
2019-02-25T02:06:30.122Z,1.40
2019-02-25T02:09:05.667Z,1.40
2019-02-25T02:11:40.691Z,1.30
2019-02-25T02:14:16.022Z,1.30
2019-02-25T02:16:49.381Z,1.30
2019-02-25T02:19:22.733Z,1.30
2019-02-25T02:21:57.052Z,1.20
2019-02-25T02:24:30.494Z,1.20
2019-02-25T02:27:04.464Z,1.20
2019-02-25T02:29:37.581Z,1.10
2019-02-25T02:32:11.115Z,1.00
2019-02-25T02:34:44.707Z,0.90
2019-02-25T02:37:18.453Z,0.90
2019-02-25T02:39:51.951Z,0.80
2019-02-25T02:42:26.093Z,0.80
2019-02-25T02:45:07.035Z,0.70
2019-02-25T02:47:50.194Z,0.70
2019-02-25T02:50:25.125Z,0.60
2019-02-25T02:52:59.087Z,0.60
2019-02-25T02:55:33.735Z,0.60
2019-02-25T02:58:07.649Z,0.60
2019-02-25T03:00:41.331Z,0.50
2019-02-25T03:03:15.864Z,0.50
2019-02-25T03:05:49.861Z,0.50
2019-02-25T03:08:23.289Z,0.50
2019-02-25T03:10:57.133Z,0.50
2019-02-25T03:13:30.700Z,0.40
2019-02-25T03:16:04.516Z,0.40
2019-02-25T03:18:38.179Z,0.40
2019-02-25T03:21:11.500Z,0.40
2019-02-25T03:23:45.323Z,0.40
2019-02-25T03:26:19.003Z,0.30
2019-02-25T03:28:52.333Z,0.30
2019-02-25T03:31:27.093Z,0.30
2019-02-25T03:34:00.011Z,0.30
2019-02-25T03:36:34.168Z,0.30
2019-02-25T03:39:08.163Z,0.30
2019-02-25T03:41:41.385Z,0.20
2019-02-25T03:44:14.911Z,0.20
2019-02-25T03:46:48.769Z,0.20
2019-02-25T03:49:22.557Z,0.20
2019-02-25T03:51:56.060Z,0.20
2019-02-25T03:54:30.251Z,0.20
2019-02-25T03:57:04.102Z,0.20
2019-02-25T03:59:39.377Z,0.10
2019-02-25T18:14:55.730Z,11.10
2019-02-25T18:18:00.712Z,11.00
2019-02-25T18:20:44.403Z,11.10
2019-02-25T18:23:28.025Z,11.00
2019-02-25T18:26:14.892Z,10.80
2019-02-25T18:28:59.723Z,10.70
2019-02-25T18:31:43.748Z,10.50
2019-02-25T18:34:28.362Z,10.30
2019-02-25T18:37:13.504Z,10.20
2019-02-25T18:42:47.088Z,9.90
2019-02-25T18:48:19.023Z,10.00
2019-02-25T18:54:02.069Z,9.90
2019-02-25T18:56:49.992Z,9.80
2019-02-25T18:59:40.214Z,9.60
2019-02-25T19:02:25.365Z,9.40
2019-02-25T19:05:13.051Z,9.20
2019-02-25T19:07:57.680Z,9.10
2019-02-25T19:10:46.096Z,8.90
2019-02-25T19:19:34.178Z,8.50
2019-02-25T19:22:20.616Z,8.30
2019-02-25T19:25:14.967Z,8.20
2019-02-25T19:28:32.904Z,8.10
2019-02-25T19:31:23.922Z,8.10
2019-02-25T19:34:10.496Z,8.00
2019-02-25T19:36:58.002Z,7.90
2019-02-25T19:39:43.919Z,7.80
2019-02-25T19:42:31.222Z,7.60
2019-02-25T19:45:15.936Z,7.50
2019-02-25T19:48:02.481Z,7.30
2019-02-25T19:53:33.851Z,7.20
2019-02-25T19:56:37.487Z,7.10
2019-02-25T19:59:24.086Z,7.10
2019-02-25T20:04:55.109Z,7.00
2019-02-25T20:07:40.297Z,6.80
2019-02-25T20:10:25.200Z,6.80
2019-02-25T20:15:55.574Z,6.70
2019-02-25T20:18:53.787Z,6.60
2019-02-25T20:21:45.657Z,6.60
2019-02-25T20:24:50.484Z,6.50
2019-02-25T20:27:40.517Z,6.40
2019-02-25T20:30:26.507Z,6.30
2019-02-25T20:35:56.044Z,6.10
2019-02-25T20:38:43.685Z,6.00
2019-02-25T20:41:31.010Z,5.90
2019-02-25T20:44:18.594Z,5.80
2019-02-25T20:47:23.589Z,5.80
2019-02-25T20:52:58.224Z,5.90
2019-02-25T20:58:58.570Z,5.90
2019-02-25T21:01:52.962Z,5.80
2019-02-25T21:04:59.715Z,5.60
2019-02-25T21:07:50.453Z,5.50
2019-02-25T21:16:44.813Z,5.20
2019-02-25T21:22:17.244Z,5.10
2019-02-25T21:25:08.703Z,5.10
2019-02-25T21:27:59.276Z,5.00
2019-02-25T21:36:49.299Z,5.00
2019-02-25T21:39:38.601Z,4.90
2019-02-25T21:42:24.680Z,4.80
2019-02-25T21:45:10.359Z,4.70
2019-02-25T21:47:56.629Z,4.60
2019-02-25T21:50:42.742Z,4.50
2019-02-25T21:56:27.930Z,4.30
2019-02-25T21:59:15.056Z,4.30
2019-02-25T22:02:01.512Z,4.20
2019-02-25T22:04:48.098Z,4.10
2019-02-25T22:07:35.275Z,4.10
2019-02-25T22:10:29.845Z,4.00
2019-02-25T22:13:18.240Z,4.00
2019-02-25T22:19:10.442Z,3.80
2019-02-25T22:22:02.701Z,3.80
2019-02-25T22:24:48.690Z,3.80
2019-02-25T22:27:39.087Z,3.70
2019-02-25T22:36:01.090Z,3.80
2019-02-25T22:38:45.870Z,3.70
2019-02-25T22:41:34.659Z,3.60
2019-02-25T22:44:22.051Z,3.50
2019-02-25T22:53:01.650Z,3.40
2019-02-25T22:55:54.741Z,3.60
2019-02-25T22:59:00.319Z,3.60
2019-02-25T23:01:45.377Z,3.60
2019-02-25T23:04:30.381Z,3.70
2019-02-25T23:07:17.668Z,3.60
2019-02-25T23:10:10.205Z,3.50
2019-02-25T23:13:32.039Z,3.40
2019-02-25T23:16:10.191Z,3.20
2019-02-25T23:18:55.619Z,3.10
2019-02-25T23:21:40.517Z,3.00
2019-02-25T23:24:30.009Z,3.00
2019-02-25T23:27:18.842Z,3.00
2019-02-25T23:30:09.070Z,3.10
2019-02-25T23:33:08.033Z,3.30
2019-02-25T23:35:58.624Z,3.30
2019-02-25T23:38:47.509Z,3.30
2019-02-25T23:41:38.985Z,3.10
2019-02-25T23:44:30.407Z,3.00
2019-02-25T23:47:19.896Z,3.00
2019-02-25T23:52:55.553Z,2.80
2019-02-25T23:55:47.135Z,2.70
2019-02-25T23:58:51.698Z,2.60
